Time;durP1;ratioP1;P1;durP2;ratioP2;P2;SDS_P1;SDS_P2;PMS_P1;PMS_P2;Temp;Humidity;BMP_temperature;BMP_pressure;BME280_temperature;BME280_humidity;BME280_pressure;Samples;Min_cycle;Max_cycle;Signal;HPM_P1;HPM_P2
2023/12/13 00:00:54;;;;;;;3.13;1.20;;;11.90;77.90;;;;;;5005969;28;20388;-52
2023/12/13 00:03:20;;;;;;;4.68;1.15;;;11.80;77.60;;;;;;5006367;28;20038;-50
2023/12/13 00:05:47;;;;;;;4.72;1.60;;;11.80;77.40;;;;;;5009818;28;20419;-51
2023/12/13 00:08:19;;;;;;;2.40;0.82;;;11.80;77.30;;;;;;5010326;28;20455;-52
2023/12/13 00:10:46;;;;;;;1.42;1.08;;;11.80;77.40;;;;;;5006256;28;20121;-53
2023/12/13 00:13:15;;;;;;;2.35;1.20;;;11.70;77.40;;;;;;5008530;28;20053;-50
2023/12/13 00:15:42;;;;;;;3.65;1.13;;;11.70;77.60;;;;;;5009530;28;20081;-49
2023/12/13 00:18:09;;;;;;;4.78;1.50;;;11.70;77.70;;;;;;5009863;28;20532;-52
2023/12/13 00:20:42;;;;;;;5.38;1.50;;;11.70;77.80;;;;;;5007790;28;20045;-50
2023/12/13 00:23:15;;;;;;;2.53;1.40;;;11.70;77.90;;;;;;5007404;28;20245;-50
2023/12/13 00:25:42;;;;;;;5.15;2.00;;;11.70;78.10;;;;;;5008685;28;20104;-50
2023/12/13 00:28:08;;;;;;;2.08;1.42;;;11.70;78.10;;;;;;5010192;28;20045;-51
2023/12/13 00:30:35;;;;;;;1.83;1.45;;;11.70;78.20;;;;;;5009366;28;20049;-48
2023/12/13 00:33:02;;;;;;;1.75;1.30;;;11.70;78.20;;;;;;5006537;28;20495;-50
2023/12/13 00:35:29;;;;;;;2.50;1.48;;;11.70;78.10;;;;;;5009458;28;20451;-53
2023/12/13 00:37:55;;;;;;;3.80;1.45;;;11.70;78.00;;;;;;5009893;28;20456;-53
2023/12/13 00:40:24;;;;;;;4.30;1.48;;;11.70;77.90;;;;;;5003813;28;20476;-50
2023/12/13 00:42:50;;;;;;;3.72;1.60;;;11.70;77.90;;;;;;5006331;28;20042;-50
2023/12/13 00:45:17;;;;;;;3.72;1.48;;;11.80;78.00;;;;;;5008683;28;20057;-50
2023/12/13 00:47:44;;;;;;;3.63;1.77;;;11.80;78.00;;;;;;5009428;28;20092;-54
2023/12/13 00:50:11;;;;;;;1.88;1.60;;;11.70;78.10;;;;;;5007978;28;20050;-56
2023/12/13 00:52:40;;;;;;;3.67;1.75;;;11.80;78.20;;;;;;5007025;28;20112;-53
2023/12/13 00:55:07;;;;;;;5.03;1.60;;;11.80;78.30;;;;;;5006576;28;20038;-49
2023/12/13 00:57:34;;;;;;;4.90;1.52;;;11.80;78.30;;;;;;5006085;28;20049;-51
2023/12/13 01:00:05;;;;;;;3.58;1.42;;;11.80;78.20;;;;;;5009655;28;20037;-49
2023/12/13 01:02:32;;;;;;;3.08;1.40;;;11.80;78.20;;;;;;5005202;28;20070;-52
2023/12/13 01:04:58;;;;;;;5.68;2.13;;;11.80;78.30;;;;;;5005594;28;20042;-53
2023/12/13 01:07:28;;;;;;;3.90;1.75;;;11.80;78.90;;;;;;5009308;28;20057;-50
2023/12/13 01:09:54;;;;;;;4.97;1.55;;;11.80;78.10;;;;;;5007395;28;20057;-51
2023/12/13 01:12:21;;;;;;;4.45;1.80;;;11.90;78.10;;;;;;5011874;28;20065;-51
2023/12/13 01:14:48;;;;;;;4.75;1.77;;;11.80;78.10;;;;;;5012053;28;20322;-53
2023/12/13 01:17:15;;;;;;;4.00;1.75;;;11.90;78.20;;;;;;5011970;28;20084;-51
2023/12/13 01:19:42;;;;;;;4.05;1.50;;;11.90;78.30;;;;;;5010839;28;20042;-51
2023/12/13 01:22:09;;;;;;;5.65;2.17;;;11.90;78.30;;;;;;5010226;28;20034;-49
2023/12/13 01:24:37;;;;;;;3.67;1.67;;;11.90;78.30;;;;;;5009503;28;20045;-55
2023/12/13 01:27:05;;;;;;;3.78;1.70;;;11.90;78.30;;;;;;5012604;28;20411;-50
2023/12/13 01:29:31;;;;;;;3.00;2.08;;;11.90;78.30;;;;;;5012680;28;20073;-50
2023/12/13 01:31:58;;;;;;;3.42;1.58;;;11.90;78.40;;;;;;5009677;28;20486;-54
2023/12/13 01:34:25;;;;;;;5.15;1.90;;;11.90;78.30;;;;;;5011887;28;20046;-53
2023/12/13 01:36:52;;;;;;;6.20;2.55;;;12.00;78.40;;;;;;5012230;28;20041;-49
2023/12/13 01:39:18;;;;;;;4.40;1.85;;;12.00;78.40;;;;;;5010393;28;20468;-52
2023/12/13 01:41:47;;;;;;;7.28;2.15;;;12.00;78.30;;;;;;5012116;28;20038;-53
2023/12/13 01:44:14;;;;;;;6.38;2.00;;;12.00;78.30;;;;;;5009318;28;20092;-55
2023/12/13 01:46:41;;;;;;;4.88;2.10;;;12.00;78.20;;;;;;5011789;28;20432;-53
2023/12/13 01:49:09;;;;;;;4.78;1.88;;;12.00;78.10;;;;;;5012465;28;20048;-48
2023/12/13 01:51:37;;;;;;;4.20;2.47;;;12.00;78.10;;;;;;5009702;28;20519;-50
2023/12/13 01:54:06;;;;;;;3.85;2.00;;;12.00;78.10;;;;;;5006082;28;20096;-53
2023/12/13 01:56:33;;;;;;;4.88;1.85;;;12.00;78.00;;;;;;5011860;28;20065;-48
2023/12/13 01:59:00;;;;;;;3.58;2.00;;;12.10;78.10;;;;;;5011386;28;20042;-49
2023/12/13 02:01:30;;;;;;;4.95;1.83;;;12.10;78.10;;;;;;5010574;28;20049;-54
2023/12/13 02:03:57;;;;;;;5.82;1.92;;;12.00;78.00;;;;;;5025462;28;20042;-54
2023/12/13 02:06:24;;;;;;;4.10;2.00;;;12.10;78.00;;;;;;5012014;28;20119;-50
2023/12/13 02:08:51;;;;;;;6.22;2.00;;;12.10;78.00;;;;;;5011550;28;20100;-49
2023/12/13 02:11:18;;;;;;;4.47;1.75;;;12.10;77.90;;;;;;5008965;28;20088;-55
2023/12/13 02:13:48;;;;;;;5.35;2.05;;;12.00;77.80;;;;;;5010919;28;20060;-51
2023/12/13 02:16:14;;;;;;;6.30;1.75;;;12.10;78.00;;;;;;5011340;28;20049;-52
2023/12/13 02:18:41;;;;;;;4.18;2.05;;;12.10;78.00;;;;;;5010223;28;20100;-51
2023/12/13 02:21:10;;;;;;;5.20;2.10;;;12.10;78.00;;;;;;5010087;28;20547;-49
2023/12/13 02:23:37;;;;;;;4.13;1.52;;;12.10;78.00;;;;;;5008598;28;20039;-53
2023/12/13 02:26:08;;;;;;;4.65;2.20;;;12.10;78.10;;;;;;5010562;28;20066;-49
2023/12/13 02:28:35;;;;;;;5.13;2.15;;;12.10;78.20;;;;;;5011745;28;20057;-54
2023/12/13 02:31:03;;;;;;;6.25;2.10;;;12.10;78.20;;;;;;5011081;28;20420;-53
2023/12/13 02:33:30;;;;;;;5.40;2.30;;;12.10;78.30;;;;;;5008613;28;20058;-50
2023/12/13 02:35:58;;;;;;;4.45;1.83;;;12.10;78.20;;;;;;5011111;28;20045;-51
2023/12/13 02:38:26;;;;;;;7.50;2.03;;;12.20;78.30;;;;;;5005356;28;20131;-51
2023/12/13 02:40:53;;;;;;;7.55;2.15;;;12.20;78.30;;;;;;5007236;28;20443;-53
2023/12/13 02:43:24;;;;;;;4.78;1.83;;;12.20;78.30;;;;;;5008696;28;20484;-50
2023/12/13 02:45:51;;;;;;;4.03;1.90;;;12.20;78.30;;;;;;5010689;28;20049;-51
2023/12/13 02:48:18;;;;;;;3.90;1.73;;;12.20;78.30;;;;;;5011407;28;20092;-52
2023/12/13 02:50:45;;;;;;;4.05;2.13;;;12.20;78.30;;;;;;5007551;28;20132;-50
2023/12/13 02:53:12;;;;;;;4.38;1.50;;;12.20;78.20;;;;;;5008927;28;20042;-52
2023/12/13 02:55:39;;;;;;;2.83;1.13;;;12.20;78.30;;;;;;5008822;28;20049;-49
2023/12/13 02:58:06;;;;;;;5.63;2.25;;;12.20;78.30;;;;;;5026139;28;20113;-49
2023/12/13 03:00:33;;;;;;;4.78;2.00;;;12.20;78.30;;;;;;5010441;28;20045;-52
2023/12/13 03:03:00;;;;;;;3.97;1.88;;;12.30;78.40;;;;;;5008767;28;20104;-49
2023/12/13 03:05:28;;;;;;;4.95;1.92;;;12.20;78.40;;;;;;5010402;28;20765;-53
2023/12/13 03:07:57;;;;;;;5.88;1.95;;;12.30;78.50;;;;;;5010975;28;20117;-49
2023/12/13 03:10:27;;;;;;;5.65;1.85;;;12.30;78.50;;;;;;5002235;28;20042;-53
2023/12/13 03:12:57;;;;;;;6.07;1.48;;;12.30;78.50;;;;;;5009567;28;20042;-51
2023/12/13 03:15:24;;;;;;;3.72;2.08;;;12.30;78.50;;;;;;5003871;28;20218;-49
2023/12/13 03:17:51;;;;;;;5.25;1.30;;;12.30;78.40;;;;;;5006298;28;20108;-49
2023/12/13 03:20:17;;;;;;;5.60;1.98;;;12.30;78.40;;;;;;5010001;28;20046;-53
2023/12/13 03:22:44;;;;;;;7.15;1.98;;;12.30;78.40;;;;;;5009486;28;20038;-50
2023/12/13 03:25:13;;;;;;;5.28;1.65;;;12.30;78.30;;;;;;5006313;28;20042;-51
2023/12/13 03:27:42;;;;;;;6.85;1.52;;;12.30;78.30;;;;;;5006416;28;20041;-49
2023/12/13 03:30:10;;;;;;;4.25;1.95;;;12.40;78.40;;;;;;5010194;28;20046;-49
2023/12/13 03:32:40;;;;;;;3.40;1.70;;;12.30;78.20;;;;;;5006689;28;20042;-52
2023/12/13 03:35:09;;;;;;;5.88;1.88;;;12.40;78.30;;;;;;5009123;28;20052;-50
2023/12/13 03:37:37;;;;;;;7.85;2.05;;;12.40;78.90;;;;;;5009701;28;20052;-50
2023/12/13 03:40:05;;;;;;;5.13;1.67;;;12.40;78.30;;;;;;5010049;28;20042;-50
2023/12/13 03:42:32;;;;;;;5.65;1.83;;;12.40;78.30;;;;;;5003719;28;20078;-50
2023/12/13 03:44:58;;;;;;;7.13;2.00;;;12.40;78.30;;;;;;5009166;28;20116;-49
2023/12/13 03:47:25;;;;;;;6.05;1.67;;;12.40;78.40;;;;;;5009911;28;20041;-51
2023/12/13 03:49:52;;;;;;;6.45;1.95;;;12.40;78.30;;;;;;5010280;28;20050;-50
2023/12/13 03:52:19;;;;;;;4.18;2.03;;;12.40;78.30;;;;;;5007911;28;20050;-52
2023/12/13 03:54:45;;;;;;;6.32;1.83;;;12.40;78.20;;;;;;5006027;28;20495;-52
2023/12/13 03:57:17;;;;;;;2.95;1.70;;;12.40;78.20;;;;;;5009539;28;20586;-49
2023/12/13 03:59:43;;;;;;;5.72;1.88;;;12.40;78.20;;;;;;5009229;28;20060;-52
2023/12/13 04:02:10;;;;;;;7.63;2.22;;;12.40;78.10;;;;;;5004600;28;20125;-53
2023/12/13 04:04:40;;;;;;;2.63;1.75;;;12.40;78.10;;;;;;5010036;28;20069;-49
2023/12/13 04:07:10;;;;;;;5.68;2.55;;;12.40;78.10;;;;;;5009677;28;20409;-49
2023/12/13 04:09:37;;;;;;;7.20;1.95;;;12.40;78.80;;;;;;5010084;28;20045;-51
2023/12/13 04:12:05;;;;;;;5.95;2.15;;;12.40;78.10;;;;;;5003654;28;20046;-52
2023/12/13 04:14:31;;;;;;;6.45;2.90;;;12.40;78.20;;;;;;5009158;28;20049;-48
2023/12/13 04:16:58;;;;;;;5.25;1.73;;;12.40;78.30;;;;;;5009448;28;20065;-51
2023/12/13 04:19:25;;;;;;;5.38;1.70;;;12.40;78.30;;;;;;5009030;28;20048;-54
2023/12/13 04:21:51;;;;;;;7.75;2.00;;;12.40;78.30;;;;;;5008273;28;20069;-51
2023/12/13 04:24:18;;;;;;;9.68;2.40;;;12.50;78.30;;;;;;5004650;28;20121;-52
2023/12/13 04:26:45;;;;;;;9.45;2.28;;;12.50;78.30;;;;;;5009293;28;20104;-53
2023/12/13 04:29:12;;;;;;;5.60;2.17;;;12.40;78.20;;;;;;5009308;28;20046;-53
2023/12/13 04:31:40;;;;;;;8.90;2.67;;;12.40;78.20;;;;;;5005083;28;20046;-49
2023/12/13 04:34:07;;;;;;;6.03;2.40;;;12.40;78.10;;;;;;5008708;28;20057;-52
2023/12/13 04:36:34;;;;;;;5.80;2.45;;;12.50;78.20;;;;;;5008413;28;20038;-49
2023/12/13 04:39:01;;;;;;;7.28;2.60;;;12.50;78.20;;;;;;5009708;28;20046;-51
2023/12/13 04:41:28;;;;;;;5.55;2.10;;;12.40;78.10;;;;;;5003442;28;20061;-49
2023/12/13 04:43:54;;;;;;;7.20;2.42;;;12.40;78.20;;;;;;5005305;28;20087;-54
2023/12/13 04:46:21;;;;;;;4.95;2.00;;;12.40;78.20;;;;;;5013154;28;20038;-53
2023/12/13 04:48:48;;;;;;;10.07;2.80;;;12.50;78.20;;;;;;5013442;28;20042;-53
2023/12/13 04:51:17;;;;;;;11.13;2.25;;;12.40;78.20;;;;;;5013015;28;20042;-52
2023/12/13 04:53:47;;;;;;;4.97;1.88;;;12.40;78.30;;;;;;5005273;28;20503;-54
2023/12/13 04:56:13;;;;;;;8.88;1.80;;;12.40;78.20;;;;;;5011293;28;20545;-50
2023/12/13 04:58:47;;;;;;;4.55;2.22;;;12.40;78.20;;;;;;5013225;28;20041;-49
2023/12/13 05:01:19;;;;;;;6.97;2.25;;;12.40;78.20;;;;;;5012690;28;20053;-51
2023/12/13 05:03:46;;;;;;;7.30;2.40;;;12.40;78.10;;;;;;5009100;28;20411;-50
2023/12/13 05:06:14;;;;;;;4.50;1.88;;;12.40;78.20;;;;;;5012692;28;20455;-53
2023/12/13 05:08:41;;;;;;;10.15;2.33;;;12.40;78.20;;;;;;5012742;28;20111;-53
2023/12/13 05:11:09;;;;;;;5.97;2.10;;;12.40;78.20;;;;;;5012585;28;20056;-51
2023/12/13 05:13:36;;;;;;;6.13;2.22;;;12.40;78.20;;;;;;5008873;28;20065;-49
2023/12/13 05:16:03;;;;;;;5.45;1.83;;;12.40;78.30;;;;;;5012344;28;20045;-49
2023/12/13 05:18:30;;;;;;;9.38;2.03;;;12.40;78.30;;;;;;5012903;28;20038;-51
2023/12/13 05:20:56;;;;;;;8.70;2.50;;;12.40;78.30;;;;;;5011918;28;20041;-50
2023/12/13 05:23:23;;;;;;;6.38;2.42;;;12.40;78.30;;;;;;5007719;28;20127;-49
2023/12/13 05:25:51;;;;;;;4.43;1.80;;;12.40;78.40;;;;;;5009639;28;20042;-53
2023/12/13 05:28:17;;;;;;;5.78;2.20;;;12.40;78.50;;;;;;5027998;28;20158;-49
2023/12/13 05:30:46;;;;;;;6.05;2.30;;;12.40;78.40;;;;;;5012385;28;20563;-53
2023/12/13 05:33:13;;;;;;;7.43;1.85;;;12.40;78.40;;;;;;5007124;28;20704;-52
2023/12/13 05:35:43;;;;;;;6.80;2.60;;;12.40;78.40;;;;;;5011675;28;20652;-49
2023/12/13 05:38:09;;;;;;;6.30;2.45;;;12.40;78.50;;;;;;5012556;28;20095;-50
2023/12/13 05:40:36;;;;;;;8.35;2.50;;;12.40;78.50;;;;;;5010899;28;20111;-49
2023/12/13 05:43:03;;;;;;;7.90;2.78;;;12.40;78.40;;;;;;5006290;28;20598;-52
2023/12/13 05:45:32;;;;;;;4.97;2.35;;;12.40;78.40;;;;;;5011972;28;20046;-52
2023/12/13 05:47:59;;;;;;;3.95;2.05;;;12.40;78.40;;;;;;5012161;28;20038;-52
2023/12/13 05:50:28;;;;;;;5.65;2.35;;;12.40;78.40;;;;;;5011704;28;20038;-51
2023/12/13 05:52:55;;;;;;;5.50;2.03;;;12.40;78.40;;;;;;5004225;28;20511;-52
2023/12/13 05:55:22;;;;;;;8.95;2.05;;;12.40;78.40;;;;;;5006233;28;20069;-52
2023/12/13 05:57:48;;;;;;;7.93;1.90;;;12.40;78.30;;;;;;5011382;28;20555;-51
2023/12/13 06:00:16;;;;;;;7.13;2.63;;;12.40;78.30;;;;;;5011652;28;20042;-50
2023/12/13 06:02:42;;;;;;;7.95;2.35;;;12.40;78.20;;;;;;5007323;28;20555;-53
2023/12/13 06:05:22;;;;;;;7.50;2.47;;;12.40;78.10;;;;;;5011038;28;20046;-51
2023/12/13 06:07:49;;;;;;;8.77;2.88;;;12.40;78.10;;;;;;5011798;28;20512;-49
2023/12/13 06:10:17;;;;;;;4.45;2.47;;;12.40;78.00;;;;;;5026689;28;20038;-55
2023/12/13 06:12:44;;;;;;;6.78;2.65;;;12.40;78.00;;;;;;5005007;28;20100;-48
2023/12/13 06:15:12;;;;;;;8.75;2.20;;;12.40;78.00;;;;;;5011461;28;20411;-48
2023/12/13 06:17:38;;;;;;;7.63;2.10;;;12.40;78.00;;;;;;5011158;28;20042;-49
2023/12/13 06:20:06;;;;;;;7.82;2.08;;;12.40;78.00;;;;;;5009189;28;20928;-50
2023/12/13 06:22:38;;;;;;;7.22;2.33;;;12.40;78.00;;;;;;5009832;28;20041;-49
2023/12/13 06:25:07;;;;;;;4.82;2.00;;;12.40;78.00;;;;;;5006179;28;20468;-54
2023/12/13 06:27:34;;;;;;;8.50;2.08;;;12.50;77.90;;;;;;5010949;28;20037;-51
2023/12/13 06:30:01;;;;;;;5.97;2.20;;;12.40;77.70;;;;;;5011034;28;20089;-52
2023/12/13 06:32:28;;;;;;;4.00;1.58;;;12.40;78.30;;;;;;5008637;28;20411;-49
2023/12/13 06:34:55;;;;;;;5.38;2.10;;;12.40;77.60;;;;;;5007155;28;20127;-49
2023/12/13 06:37:22;;;;;;;5.22;2.50;;;12.40;77.60;;;;;;5009601;28;20052;-52
2023/12/13 06:39:49;;;;;;;6.10;2.20;;;12.40;77.60;;;;;;5011113;28;20061;-49
2023/12/13 06:42:18;;;;;;;10.15;2.55;;;12.40;77.70;;;;;;5002687;28;20132;-52
2023/12/13 06:44:45;;;;;;;6.88;2.35;;;12.40;77.80;;;;;;5023827;28;20042;-50
2023/12/13 06:47:11;;;;;;;8.57;2.30;;;12.30;77.80;;;;;;5010219;28;20570;-49
2023/12/13 06:49:40;;;;;;;8.82;2.90;;;12.40;77.80;;;;;;5026169;28;20100;-48
2023/12/13 06:52:08;;;;;;;7.88;4.20;;;12.40;77.80;;;;;;5008072;28;20461;-50
2023/12/13 06:54:35;;;;;;;7.50;2.50;;;12.30;77.80;;;;;;5006649;28;20577;-53
2023/12/13 06:57:01;;;;;;;4.97;2.50;;;12.40;77.80;;;;;;5011259;28;20046;-51
2023/12/13 06:59:28;;;;;;;6.53;2.17;;;12.30;77.70;;;;;;5009320;28;20531;-50
2023/12/13 07:01:55;;;;;;;7.53;2.08;;;12.30;77.70;;;;;;5006903;28;20068;-51
2023/12/13 07:04:22;;;;;;;7.20;2.33;;;12.30;77.70;;;;;;5009134;28;20512;-51
2023/12/13 07:06:52;;;;;;;5.63;1.73;;;12.30;77.80;;;;;;5009786;28;20045;-52
2023/12/13 07:09:21;;;;;;;6.45;2.60;;;12.30;77.80;;;;;;5009314;28;20053;-52
2023/12/13 07:11:48;;;;;;;6.72;2.22;;;12.30;77.70;;;;;;5005709;28;20463;-51
2023/12/13 07:14:14;;;;;;;3.95;2.00;;;12.30;77.70;;;;;;5008532;28;20575;-53
2023/12/13 07:16:42;;;;;;;4.47;1.92;;;12.30;77.70;;;;;;5009388;28;20664;-50
2023/12/13 07:19:10;;;;;;;6.57;1.60;;;12.30;77.60;;;;;;5007523;28;20049;-52
2023/12/13 07:21:39;;;;;;;4.85;2.35;;;12.30;77.60;;;;;;5007496;28;20096;-50
2023/12/13 07:24:06;;;;;;;6.70;2.13;;;12.30;77.50;;;;;;5005746;28;20547;-51
2023/12/13 07:26:32;;;;;;;6.05;2.47;;;12.30;77.50;;;;;;5009112;28;20060;-52
2023/12/13 07:29:00;;;;;;;6.43;2.20;;;12.30;77.60;;;;;;5008963;28;20046;-49
2023/12/13 07:31:27;;;;;;;5.90;2.22;;;12.30;77.70;;;;;;5007676;28;21044;-49
2023/12/13 07:33:54;;;;;;;4.93;1.83;;;12.30;77.80;;;;;;5007627;28;20107;-52
2023/12/13 07:36:22;;;;;;;7.30;2.63;;;12.30;77.90;;;;;;5009108;28;20056;-49
2023/12/13 07:38:52;;;;;;;5.78;2.20;;;12.30;78.00;;;;;;5009257;28;20037;-48
2023/12/13 07:41:19;;;;;;;6.10;2.55;;;12.30;78.10;;;;;;5006636;28;20537;-50
2023/12/13 07:43:46;;;;;;;6.38;2.42;;;12.30;78.10;;;;;;5004739;28;20119;-48
2023/12/13 07:46:13;;;;;;;7.90;2.28;;;12.20;78.00;;;;;;5008476;28;20065;-52
2023/12/13 07:48:41;;;;;;;6.72;2.33;;;12.30;78.20;;;;;;5006887;28;20034;-52
2023/12/13 07:51:11;;;;;;;6.88;2.25;;;12.20;78.20;;;;;;4992951;28;20439;-52
2023/12/13 07:53:41;;;;;;;6.57;2.60;;;12.20;78.20;;;;;;5003583;28;20048;-53
2023/12/13 07:56:10;;;;;;;5.97;2.38;;;12.30;78.40;;;;;;5006866;28;20121;-51
2023/12/13 07:58:49;;;;;;;5.78;2.38;;;12.30;78.40;;;;;;5004319;28;20496;-51
2023/12/13 08:01:15;;;;;;;9.95;2.83;;;12.30;78.40;;;;;;5001706;28;20046;-52
2023/12/13 08:03:45;;;;;;;7.53;2.85;;;12.30;78.40;;;;;;5006491;28;20117;-53
2023/12/13 08:06:18;;;;;;;10.68;2.50;;;12.30;78.40;;;;;;5005435;28;20085;-52
2023/12/13 08:08:47;;;;;;;5.63;1.95;;;12.30;78.40;;;;;;5005296;28;20575;-51
2023/12/13 08:11:14;;;;;;;5.95;2.65;;;12.30;78.40;;;;;;5007469;28;20049;-51
2023/12/13 08:13:42;;;;;;;4.82;1.80;;;12.30;78.40;;;;;;5008654;28;20833;-53
2023/12/13 08:16:09;;;;;;;5.47;1.92;;;12.30;78.40;;;;;;5007133;28;20467;-48
2023/12/13 08:18:37;;;;;;;3.85;1.67;;;12.30;78.30;;;;;;5009826;28;20445;-52
2023/12/13 08:21:06;;;;;;;8.02;2.00;;;12.40;78.40;;;;;;4999917;28;20076;-51
2023/12/13 08:23:33;;;;;;;6.43;2.10;;;12.30;78.30;;;;;;5011124;28;20516;-49
2023/12/13 08:26:00;;;;;;;5.72;1.77;;;12.40;78.20;;;;;;5013558;28;20088;-49
2023/12/13 08:28:27;;;;;;;5.22;1.70;;;12.40;78.20;;;;;;5013415;28;20093;-53
2023/12/13 08:30:55;;;;;;;5.50;2.17;;;12.40;78.80;;;;;;5014146;28;20111;-50
2023/12/13 08:33:42;;;;;;;5.13;2.17;;;12.40;78.10;;;;;;5006109;28;20128;-53
2023/12/13 08:36:12;;;;;;;8.00;2.60;;;12.40;78.10;;;;;;5011468;28;20455;-54
2023/12/13 08:38:40;;;;;;;7.88;2.20;;;12.50;78.20;;;;;;4988085;28;20054;-51
2023/12/13 08:41:07;;;;;;;4.70;2.17;;;12.50;78.20;;;;;;5007301;28;20037;-54
2023/12/13 08:43:34;;;;;;;8.25;2.08;;;12.50;78.10;;;;;;5001470;28;20050;-54
2023/12/13 08:46:01;;;;;;;8.43;2.10;;;12.50;78.10;;;;;;5005389;28;20177;-53
2023/12/13 08:48:28;;;;;;;4.88;1.85;;;12.50;78.10;;;;;;5012483;28;20478;-52
2023/12/13 08:50:55;;;;;;;6.15;2.13;;;12.60;78.10;;;;;;5009415;28;20114;-52
2023/12/13 08:53:22;;;;;;;5.03;2.17;;;12.60;78.00;;;;;;5006476;28;20096;-53
2023/12/13 08:55:48;;;;;;;6.97;2.33;;;12.60;77.90;;;;;;5013167;28;20042;-52
2023/12/13 08:58:16;;;;;;;7.85;2.53;;;12.70;77.90;;;;;;4999870;28;20061;-52
2023/12/13 09:00:42;;;;;;;8.77;2.50;;;12.70;77.80;;;;;;5008234;28;20045;-53
2023/12/13 09:03:09;;;;;;;6.70;2.30;;;12.70;77.80;;;;;;5011504;28;20046;-50
2023/12/13 09:05:37;;;;;;;4.13;1.52;;;12.70;77.70;;;;;;5009556;28;20117;-52
2023/12/13 09:08:07;;;;;;;7.13;1.90;;;12.80;77.70;;;;;;5008305;28;20108;-53
2023/12/13 09:10:35;;;;;;;2.90;1.50;;;12.70;77.60;;;;;;5013056;28;20053;-52
2023/12/13 09:13:04;;;;;;;3.78;1.23;;;12.80;77.30;;;;;;5012248;28;20073;-53
2023/12/13 09:15:31;;;;;;;2.58;1.10;;;12.70;77.20;;;;;;5008372;28;20056;-47
2023/12/13 09:17:59;;;;;;;1.83;1.00;;;12.70;77.00;;;;;;5009279;28;20052;-54
2023/12/13 09:20:26;;;;;;;1.77;1.10;;;12.70;77.00;;;;;;5009415;28;20483;-50
2023/12/13 09:22:53;;;;;;;3.33;0.90;;;12.70;77.20;;;;;;5010510;28;20044;-52
2023/12/13 09:25:19;;;;;;;2.33;0.90;;;12.70;77.50;;;;;;5010057;28;20042;-52
2023/12/13 09:27:46;;;;;;;2.30;1.00;;;12.60;77.60;;;;;;5007231;28;20042;-51
2023/12/13 09:30:13;;;;;;;2.33;1.23;;;12.70;77.80;;;;;;5011271;28;20045;-51
2023/12/13 09:32:41;;;;;;;3.58;1.10;;;12.70;77.90;;;;;;5011658;28;20046;-49
2023/12/13 09:35:11;;;;;;;2.33;1.50;;;12.60;78.00;;;;;;5009328;28;20419;-51
2023/12/13 09:37:38;;;;;;;2.75;1.73;;;12.70;78.20;;;;;;5010323;28;20053;-53
2023/12/13 09:40:05;;;;;;;3.08;1.58;;;12.70;78.20;;;;;;5007772;28;20136;-58
2023/12/13 09:42:38;;;;;;;3.58;1.98;;;12.70;78.10;;;;;;5009705;28;20447;-58
2023/12/13 09:45:06;;;;;;;2.22;1.25;;;12.70;78.00;;;;;;5011876;28;20034;-59
2023/12/13 09:47:34;;;;;;;1.65;0.70;;;12.80;78.00;;;;;;5012153;28;20046;-59
2023/12/13 09:50:01;;;;;;;1.35;0.60;;;12.80;77.70;;;;;;5011152;28;20033;-59
2023/12/13 09:52:31;;;;;;;2.25;0.73;;;12.90;77.60;;;;;;5010174;28;20050;-58
2023/12/13 09:55:01;;;;;;;2.05;0.85;;;12.90;77.50;;;;;;5002610;28;20383;-58
2023/12/13 09:57:29;;;;;;;3.05;1.17;;;12.90;77.50;;;;;;5009496;28;20041;-59
2023/12/13 09:59:56;;;;;;;2.72;1.13;;;12.90;77.60;;;;;;5011814;28;20467;-59
2023/12/13 10:02:22;;;;;;;2.10;1.02;;;13.00;77.60;;;;;;5012525;28;20104;-58
2023/12/13 10:04:52;;;;;;;3.75;1.40;;;13.00;77.40;;;;;;5007978;28;20042;-58
2023/12/13 10:07:19;;;;;;;1.50;0.90;;;13.00;77.40;;;;;;5006386;28;20143;-59
2023/12/13 10:09:46;;;;;;;6.47;1.25;;;13.00;77.20;;;;;;5010772;28;20816;-59
2023/12/13 10:12:14;;;;;;;1.35;0.82;;;13.10;77.10;;;;;;5012508;28;20042;-58
2023/12/13 10:14:43;;;;;;;1.60;0.85;;;13.10;77.10;;;;;;5008457;28;20116;-58
2023/12/13 10:17:10;;;;;;;2.03;0.60;;;13.10;76.90;;;;;;5009618;28;20034;-58
2023/12/13 10:19:45;;;;;;;3.55;0.88;;;13.10;77.00;;;;;;5010499;28;20329;-59
2023/12/13 10:22:13;;;;;;;0.85;0.80;;;13.10;76.90;;;;;;5008028;28;20049;-59
2023/12/13 10:24:41;;;;;;;1.95;0.98;;;13.10;77.50;;;;;;5007358;28;20169;-59
2023/12/13 10:27:08;;;;;;;1.80;1.38;;;13.10;77.00;;;;;;5007657;28;20038;-59
2023/12/13 10:29:35;;;;;;;1.73;1.35;;;13.20;77.40;;;;;;5010041;28;20046;-60
2023/12/13 10:32:02;;;;;;;1.70;1.27;;;13.20;77.80;;;;;;5011480;28;20037;-60
2023/12/13 10:34:29;;;;;;;2.75;1.35;;;13.20;78.00;;;;;;5008354;28;20516;-60
2023/12/13 10:36:57;;;;;;;2.83;1.27;;;13.30;78.10;;;;;;5011043;28;20049;-59
2023/12/13 10:39:25;;;;;;;1.80;0.82;;;13.40;78.00;;;;;;5018407;28;20491;-60
2023/12/13 10:41:56;;;;;;;2.60;1.08;;;13.50;77.90;;;;;;5023769;28;20076;-56
2023/12/13 10:44:30;;;;;;;3.37;1.47;;;13.50;77.70;;;;;;5005590;28;20046;-61
2023/12/13 10:46:59;;;;;;;2.70;1.50;;;13.60;77.60;;;;;;5011161;28;20113;-61
2023/12/13 10:49:27;;;;;;;3.05;1.20;;;13.70;77.10;;;;;;5007288;28;20046;-60
2023/12/13 10:51:55;;;;;;;3.72;1.25;;;13.70;77.10;;;;;;5003031;28;20061;-60
2023/12/13 10:54:22;;;;;;;3.20;1.27;;;13.80;76.70;;;;;;5007780;28;20038;-61
2023/12/13 10:56:49;;;;;;;4.40;1.42;;;13.90;76.70;;;;;;5009179;28;20046;-61
2023/12/13 10:59:17;;;;;;;2.63;1.40;;;13.90;76.80;;;;;;5007786;28;20073;-60
2023/12/13 11:01:45;;;;;;;2.70;1.38;;;14.00;76.60;;;;;;5007305;28;20508;-60
2023/12/13 11:04:13;;;;;;;4.00;1.80;;;14.00;76.50;;;;;;5010102;28;20041;-60
2023/12/13 11:06:46;;;;;;;3.45;1.60;;;14.10;76.50;;;;;;5010851;28;20046;-60
2023/12/13 11:09:18;;;;;;;4.18;2.15;;;14.10;76.00;;;;;;5008967;28;20045;-60
2023/12/13 11:11:46;;;;;;;5.10;2.15;;;14.20;76.10;;;;;;5007904;28;20053;-60
2023/12/13 11:14:16;;;;;;;2.67;1.65;;;14.20;76.00;;;;;;5010028;28;20431;-60
2023/12/13 11:16:48;;;;;;;3.55;1.40;;;14.20;75.70;;;;;;5010635;28;20100;-61
2023/12/13 11:19:19;;;;;;;8.00;1.98;;;14.30;75.60;;;;;;5010526;28;20046;-60
2023/12/13 11:21:47;;;;;;;7.47;2.15;;;14.30;75.50;;;;;;5007942;28;20049;-60
2023/12/13 11:24:19;;;;;;;5.57;2.20;;;14.30;75.50;;;;;;5007961;28;20092;-60
2023/12/13 11:26:50;;;;;;;4.68;2.00;;;14.30;75.40;;;;;;5010284;28;20124;-60
2023/12/13 11:29:45;;;;;;;5.47;2.23;;;14.40;75.70;;;;;;5009535;28;20609;-60
2023/12/13 11:32:14;;;;;;;5.75;2.30;;;14.40;75.40;;;;;;5007422;28;20359;-60
2023/12/13 11:34:42;;;;;;;6.30;2.10;;;14.40;76.00;;;;;;5008021;28;20129;-60
2023/12/13 11:37:11;;;;;;;4.75;1.88;;;14.50;75.70;;;;;;5002224;28;20096;-60
2023/12/13 11:39:41;;;;;;;8.70;2.08;;;14.50;75.30;;;;;;5009759;28;20034;-60
2023/12/13 11:42:10;;;;;;;5.13;1.95;;;14.60;75.00;;;;;;5007079;28;20125;-60
2023/12/13 11:44:39;;;;;;;5.95;2.50;;;14.60;74.30;;;;;;5010062;28;20065;-60
2023/12/13 11:47:09;;;;;;;5.88;2.35;;;14.60;74.10;;;;;;5010426;28;20100;-61
2023/12/13 11:49:40;;;;;;;6.93;2.30;;;14.50;74.10;;;;;;5008721;28;20499;-60
2023/12/13 11:52:08;;;;;;;4.55;2.47;;;14.50;74.20;;;;;;5022206;28;20042;-61
2023/12/13 11:54:39;;;;;;;7.53;2.67;;;14.40;74.40;;;;;;5005680;28;20048;-60
2023/12/13 11:57:14;;;;;;;5.38;2.83;;;14.40;74.40;;;;;;5003230;28;20046;-60
2023/12/13 11:59:42;;;;;;;4.50;2.72;;;14.30;74.30;;;;;;5001775;28;20042;-61
2023/12/13 12:02:16;;;;;;;9.23;3.20;;;14.30;74.60;;;;;;5005571;28;20585;-61
2023/12/13 12:04:47;;;;;;;5.22;1.98;;;14.30;74.40;;;;;;5008689;28;20042;-60
2023/12/13 12:07:16;;;;;;;3.47;2.00;;;14.30;74.40;;;;;;5009758;28;20046;-60
2023/12/13 12:09:50;;;;;;;4.88;1.83;;;14.20;74.40;;;;;;5004252;28;20046;-60
2023/12/13 12:12:18;;;;;;;4.95;1.95;;;14.20;74.40;;;;;;5009397;28;20053;-60
2023/12/13 12:14:47;;;;;;;2.30;2.00;;;14.20;74.80;;;;;;5006426;28;20049;-61
2023/12/13 12:17:19;;;;;;;6.72;2.10;;;14.20;74.80;;;;;;5008352;28;20046;-61
2023/12/13 12:19:47;;;;;;;6.38;2.17;;;14.20;75.00;;;;;;4996323;28;20050;-60
2023/12/13 12:22:15;;;;;;;4.72;2.00;;;14.40;75.40;;;;;;5003091;28;20092;-60
2023/12/13 12:24:44;;;;;;;4.90;2.08;;;14.30;75.40;;;;;;5007024;28;20074;-60
2023/12/13 12:27:11;;;;;;;8.50;2.33;;;14.30;75.50;;;;;;5009464;28;20080;-61
2023/12/13 12:29:41;;;;;;;8.30;2.20;;;14.40;75.20;;;;;;5007322;28;20180;-61
2023/12/13 12:32:08;;;;;;;5.10;2.35;;;14.50;75.30;;;;;;5005426;28;20068;-60
2023/12/13 12:34:36;;;;;;;6.78;2.70;;;14.60;75.00;;;;;;5009304;28;20042;-60
2023/12/13 12:37:07;;;;;;;7.25;2.55;;;14.60;74.60;;;;;;5009631;28;20125;-60
2023/12/13 12:39:34;;;;;;;5.60;2.65;;;14.70;74.80;;;;;;5008662;28;20088;-60
2023/12/13 12:42:03;;;;;;;3.38;1.58;;;14.70;74.50;;;;;;5007750;28;20131;-60
2023/12/13 12:44:30;;;;;;;4.55;2.00;;;14.80;74.10;;;;;;5006868;28;20141;-60
2023/12/13 12:46:57;;;;;;;5.45;2.65;;;14.80;73.70;;;;;;5007779;28;20462;-61
2023/12/13 12:49:24;;;;;;;7.82;2.50;;;14.80;73.50;;;;;;5005559;28;20041;-61